Time;durP1;ratioP1;P1;durP2;ratioP2;P2;SDS_P1;SDS_P2;PMS_P1;PMS_P2;Temp;Humidity;BMP_temperature;BMP_pressure;BME280_temperature;BME280_humidity;BME280_pressure;Samples;Min_cycle;Max_cycle;Signal;HPM_P1;HPM_P2
2021/06/18 00:02:22;;;;;;;4.43;4.03;;;22.30;99.90;;;;;;5081916;28;20090;-81
2021/06/18 00:04:48;;;;;;;4.93;3.35;;;22.30;99.90;;;;;;5066375;28;20253;-80
2021/06/18 00:07:14;;;;;;;4.70;4.07;;;22.30;99.90;;;;;;5082049;28;20032;-81
2021/06/18 00:09:39;;;;;;;3.33;2.85;;;22.30;99.90;;;;;;5048723;28;20032;-80
2021/06/18 00:12:06;;;;;;;6.32;5.60;;;22.20;99.90;;;;;;5065055;28;20469;-81
2021/06/18 00:14:32;;;;;;;7.85;6.07;;;22.10;99.90;;;;;;5065221;28;20098;-81
2021/06/18 00:16:57;;;;;;;6.18;5.57;;;22.10;99.90;;;;;;5064877;28;20033;-81
2021/06/18 00:19:23;;;;;;;7.70;6.28;;;22.10;99.90;;;;;;5066280;28;20059;-80
2021/06/18 00:21:49;;;;;;;8.15;6.47;;;22.00;99.90;;;;;;5064760;28;20025;-81
2021/06/18 00:24:15;;;;;;;6.70;4.40;;;21.90;99.90;;;;;;5048003;28;20029;-80
2021/06/18 00:26:41;;;;;;;8.10;6.72;;;21.90;99.90;;;;;;5066162;28;20021;-81
2021/06/18 00:29:06;;;;;;;6.63;5.88;;;21.90;99.90;;;;;;5065061;28;20037;-81
2021/06/18 00:31:32;;;;;;;7.18;6.47;;;21.80;99.90;;;;;;5064716;28;20051;-81
2021/06/18 00:33:58;;;;;;;7.97;5.97;;;21.80;99.90;;;;;;5065940;28;20032;-80
2021/06/18 00:36:24;;;;;;;7.68;5.97;;;21.70;99.90;;;;;;5064511;28;20040;-79
2021/06/18 00:38:49;;;;;;;9.25;8.07;;;21.70;99.90;;;;;;5064779;28;20150;-80
2021/06/18 00:41:15;;;;;;;9.15;7.10;;;21.60;99.90;;;;;;5064702;28;20079;-81
2021/06/18 00:43:41;;;;;;;7.97;5.80;;;21.60;99.90;;;;;;5048148;28;20503;-80
2021/06/18 00:46:07;;;;;;;8.15;6.43;;;21.60;99.90;;;;;;5062717;28;20100;-80
2021/06/18 00:48:33;;;;;;;6.75;5.38;;;21.70;99.90;;;;;;5044537;28;20088;-81
2021/06/18 00:51:00;;;;;;;11.40;9.10;;;21.70;99.90;;;;;;5044387;28;20045;-81
2021/06/18 00:53:26;;;;;;;9.00;8.10;;;21.60;99.90;;;;;;5044685;28;20034;-81
2021/06/18 00:55:52;;;;;;;8.00;7.15;;;21.50;99.90;;;;;;5046003;28;20033;-81
2021/06/18 00:58:17;;;;;;;10.07;8.20;;;21.50;99.90;;;;;;5044583;28;20022;-81
2021/06/18 01:00:44;;;;;;;9.88;8.88;;;21.50;99.90;;;;;;5045793;28;20063;-81
2021/06/18 01:03:11;;;;;;;10.50;8.95;;;21.40;99.90;;;;;;5044569;28;20033;-81
2021/06/18 01:05:37;;;;;;;9.18;7.60;;;21.50;99.90;;;;;;5044507;28;20033;-81
2021/06/18 01:08:12;;;;;;;9.77;8.77;;;21.50;99.90;;;;;;5044364;28;20040;-81
2021/06/18 01:11:01;;;;;;;9.00;8.10;;;21.40;99.90;;;;;;5063418;28;20080;-81
2021/06/18 01:14:01;;;;;;;10.88;8.48;;;21.30;99.90;;;;;;5064444;28;20033;-80
2021/06/18 01:16:35;;;;;;;11.75;9.57;;;21.30;99.90;;;;;;5065499;28;20029;-80
2021/06/18 01:19:14;;;;;;;9.73;8.30;;;21.20;99.90;;;;;;5064283;28;20098;-80
2021/06/18 01:21:43;;;;;;;11.45;8.18;;;21.20;99.90;;;;;;5064152;28;20029;-81
2021/06/18 01:24:30;;;;;;;13.70;12.30;;;21.10;99.90;;;;;;5065543;28;20035;-81
2021/06/18 01:27:22;;;;;;;11.38;10.13;;;21.00;99.90;;;;;;5065436;28;20025;-81
2021/06/18 01:30:06;;;;;;;7.40;6.68;;;21.00;99.90;;;;;;5064190;28;20033;-81
2021/06/18 01:32:37;;;;;;;13.38;9.85;;;21.00;99.90;;;;;;5064062;28;20043;-80
2021/06/18 01:35:05;;;;;;;15.43;12.32;;;20.90;99.90;;;;;;5064185;28;20029;-81
2021/06/18 01:37:32;;;;;;;11.52;10.20;;;20.90;99.90;;;;;;5066895;28;20051;-80
2021/06/18 01:40:01;;;;;;;11.48;10.32;;;20.90;99.90;;;;;;5069597;28;20036;-81
2021/06/18 01:42:29;;;;;;;13.73;10.30;;;20.90;99.90;;;;;;5068026;28;20040;-81
2021/06/18 01:44:56;;;;;;;12.38;10.18;;;20.90;99.90;;;;;;5068122;28;20033;-81
2021/06/18 01:47:23;;;;;;;11.23;10.07;;;20.90;99.90;;;;;;5055686;28;20046;-80
2021/06/18 01:49:50;;;;;;;13.20;11.90;;;20.90;99.90;;;;;;5047961;28;20044;-81
2021/06/18 01:52:18;;;;;;;12.68;11.48;;;20.90;99.90;;;;;;5048895;28;20033;-81
2021/06/18 01:54:45;;;;;;;11.82;10.60;;;20.90;99.90;;;;;;5031297;28;20029;-81
2021/06/18 01:57:13;;;;;;;13.13;10.63;;;20.80;99.90;;;;;;5047820;28;20183;-80
2021/06/18 01:59:40;;;;;;;11.73;10.50;;;20.80;99.90;;;;;;5048972;28;20147;-81
2021/06/18 02:02:07;;;;;;;10.50;9.40;;;20.70;99.90;;;;;;5047673;28;20540;-80
2021/06/18 02:04:36;;;;;;;11.02;10.02;;;20.70;99.90;;;;;;5064226;28;20406;-80
2021/06/18 02:07:03;;;;;;;9.32;8.35;;;20.60;99.90;;;;;;5048664;28;20044;-80
2021/06/18 02:09:31;;;;;;;13.55;12.15;;;20.60;99.90;;;;;;5055908;28;20101;-81
2021/06/18 02:11:57;;;;;;;12.80;11.48;;;20.60;99.90;;;;;;5067311;28;20037;-80
2021/06/18 02:14:26;;;;;;;14.25;12.75;;;20.50;99.90;;;;;;5050879;28;20051;-81
2021/06/18 02:16:55;;;;;;;12.25;11.05;;;20.50;99.90;;;;;;5067386;28;20031;-80
2021/06/18 02:19:23;;;;;;;8.18;7.40;;;20.50;99.90;;;;;;5067481;28;20099;-81
2021/06/18 02:21:52;;;;;;;17.27;13.48;;;20.40;99.90;;;;;;5067090;28;20041;-81
2021/06/18 02:24:20;;;;;;;16.60;14.82;;;20.30;99.90;;;;;;5067142;28;20036;-80
2021/06/18 02:26:47;;;;;;;15.80;11.45;;;20.20;99.90;;;;;;5067170;28;20051;-81
2021/06/18 02:29:13;;;;;;;17.65;15.05;;;20.30;99.90;;;;;;5068394;28;20059;-81
2021/06/18 02:31:39;;;;;;;18.48;15.40;;;20.20;99.90;;;;;;5067280;28;20045;-81
2021/06/18 02:34:08;;;;;;;14.27;11.73;;;20.20;99.90;;;;;;5067129;28;20033;-80
2021/06/18 02:36:37;;;;;;;14.55;12.13;;;20.20;99.90;;;;;;5068378;28;20060;-81
2021/06/18 02:39:05;;;;;;;13.40;12.00;;;20.20;99.90;;;;;;5066964;28;20040;-80
2021/06/18 02:41:31;;;;;;;13.90;12.45;;;20.20;99.90;;;;;;5066814;28;20515;-80
2021/06/18 02:43:57;;;;;;;16.98;15.15;;;20.10;99.90;;;;;;5066939;28;20036;-81
2021/06/18 02:46:31;;;;;;;16.10;14.10;;;20.10;99.90;;;;;;5077596;22;20013;-81
2021/06/18 02:49:00;;;;;;;16.88;14.73;;;20.10;99.90;;;;;;5046716;28;20152;-81
2021/06/18 02:51:50;;;;;;;13.50;11.90;;;20.10;99.90;;;;;;5030232;28;20069;-81
2021/06/18 02:54:32;;;;;;;16.75;15.00;;;20.10;99.90;;;;;;5030403;28;20338;-81
2021/06/18 02:57:02;;;;;;;16.75;14.95;;;20.20;99.90;;;;;;5046950;28;20090;-81
2021/06/18 02:59:44;;;;;;;12.40;11.13;;;20.10;99.90;;;;;;5048003;28;20029;-82
2021/06/18 03:02:15;;;;;;;19.95;17.75;;;20.10;99.90;;;;;;5030122;28;20037;-81
2021/06/18 03:04:43;;;;;;;17.50;15.60;;;20.00;99.90;;;;;;5030020;28;20064;-81
2021/06/18 03:07:14;;;;;;;18.35;16.50;;;20.10;99.90;;;;;;5046523;28;20045;-81
2021/06/18 03:09:45;;;;;;;19.30;17.17;;;20.10;99.90;;;;;;5046517;28;20048;-81
2021/06/18 03:12:12;;;;;;;18.63;16.83;;;20.10;99.90;;;;;;5047728;28;20033;-81
2021/06/18 03:14:43;;;;;;;12.13;10.82;;;20.10;99.90;;;;;;5047701;28;20029;-81
2021/06/18 03:17:10;;;;;;;18.05;16.17;;;20.20;99.90;;;;;;5047610;28;20381;-81
2021/06/18 03:19:42;;;;;;;18.63;16.65;;;20.10;99.90;;;;;;5046384;28;20037;-81
2021/06/18 03:22:10;;;;;;;17.85;16.08;;;20.00;99.90;;;;;;5046316;28;20029;-81
2021/06/18 03:24:37;;;;;;;16.95;15.25;;;20.10;99.90;;;;;;5046066;28;20072;-81
2021/06/18 03:27:04;;;;;;;14.27;12.85;;;20.00;99.90;;;;;;5047693;28;20034;-81
2021/06/18 03:29:30;;;;;;;19.35;16.98;;;20.00;99.90;;;;;;5046127;28;20040;-81
2021/06/18 03:32:00;;;;;;;16.90;15.18;;;20.00;99.90;;;;;;5047070;28;20040;-81
2021/06/18 03:34:26;;;;;;;;;;;20.10;99.90;;;;;;5046052;28;20076;-81
2021/06/18 03:36:53;;;;;;;14.88;13.13;;;20.10;99.90;;;;;;5046707;28;19909;-81
2021/06/18 03:39:20;;;;;;;15.30;13.85;;;20.10;99.90;;;;;;5028514;28;20040;-81
2021/06/18 03:41:46;;;;;;;17.48;15.68;;;20.10;99.90;;;;;;5028669;28;20120;-81
2021/06/18 03:44:14;;;;;;;17.83;15.80;;;20.10;99.90;;;;;;5028754;28;20123;-81
2021/06/18 03:46:40;;;;;;;17.35;15.52;;;20.10;99.90;;;;;;5028038;28;20057;-80
2021/06/18 03:49:08;;;;;;;17.60;15.77;;;20.10;99.90;;;;;;5046541;28;20033;-81
2021/06/18 03:51:37;;;;;;;18.42;16.45;;;20.20;99.90;;;;;;5044883;28;20044;-81
2021/06/18 03:54:05;;;;;;;18.77;16.83;;;20.20;99.90;;;;;;5044717;28;20044;-81
2021/06/18 03:56:31;;;;;;;20.13;18.17;;;20.20;99.90;;;;;;5044956;28;20037;-81
2021/06/18 03:58:58;;;;;;;20.30;18.20;;;20.20;99.90;;;;;;5045633;28;20123;-81
2021/06/18 04:01:26;;;;;;;19.15;16.65;;;20.30;99.90;;;;;;5044824;28;20448;-81
2021/06/18 04:03:53;;;;;;;19.85;17.83;;;20.40;99.90;;;;;;5044921;28;20478;-81
2021/06/18 04:06:19;;;;;;;18.10;16.30;;;20.40;99.90;;;;;;5028050;28;20049;-81
2021/06/18 04:08:46;;;;;;;20.33;17.10;;;20.40;99.90;;;;;;5042299;28;20025;-81
2021/06/18 04:11:13;;;;;;;16.75;15.13;;;20.40;99.90;;;;;;5025875;28;20053;-81
2021/06/18 04:13:40;;;;;;;19.90;17.10;;;20.40;99.90;;;;;;5026160;28;20033;-81
2021/06/18 04:16:10;;;;;;;17.02;15.23;;;20.40;99.90;;;;;;5025789;28;20034;-81
2021/06/18 04:18:41;;;;;;;18.23;15.57;;;20.50;99.90;;;;;;5024706;28;20053;-81
2021/06/18 04:21:12;;;;;;;21.35;17.90;;;20.60;99.90;;;;;;5024497;28;20612;-81
2021/06/18 04:23:37;;;;;;;39.53;32.33;;;20.60;99.90;;;;;;5025161;28;20068;-82
2021/06/18 04:26:03;;;;;;;42.33;34.83;;;20.40;99.90;;;;;;5024816;28;20030;-82
2021/06/18 04:28:29;;;;;;;39.80;33.65;;;20.20;99.90;;;;;;5024571;28;20102;-81
2021/06/18 04:30:55;;;;;;;34.72;31.02;;;20.20;99.90;;;;;;5025656;28;20061;-81
2021/06/18 04:33:21;;;;;;;25.65;22.95;;;20.40;99.90;;;;;;5022539;28;20048;-81
2021/06/18 04:35:47;;;;;;;25.10;21.08;;;20.60;99.90;;;;;;5024440;28;20049;-80
2021/06/18 04:38:13;;;;;;;21.33;18.17;;;20.70;99.90;;;;;;5025595;28;20025;-80
2021/06/18 04:40:39;;;;;;;24.30;21.67;;;20.80;99.90;;;;;;5024064;28;20025;-80
2021/06/18 04:43:05;;;;;;;27.48;23.45;;;20.70;99.90;;;;;;5025522;28;20030;-81
2021/06/18 04:45:51;;;;;;;25.75;22.90;;;20.70;99.90;;;;;;5023983;28;20038;-81
2021/06/18 04:48:17;;;;;;;31.13;26.02;;;20.70;99.90;;;;;;5023099;28;20085;-81
2021/06/18 04:50:43;;;;;;;26.58;23.75;;;20.80;99.90;;;;;;5023101;28;20088;-80
2021/06/18 04:53:10;;;;;;;29.95;26.75;;;20.80;99.90;;;;;;5007380;28;20037;-80
2021/06/18 04:55:37;;;;;;;33.83;25.55;;;20.90;99.90;;;;;;5007182;28;20049;-81
2021/06/18 04:58:02;;;;;;;25.98;23.08;;;20.90;99.90;;;;;;5006694;28;20026;-81
2021/06/18 05:00:28;;;;;;;25.75;18.73;;;20.90;99.90;;;;;;5005413;28;20461;-81
2021/06/18 05:02:54;;;;;;;21.10;18.45;;;21.00;99.90;;;;;;5006357;28;20502;-80
2021/06/18 05:05:20;;;;;;;17.85;16.10;;;21.10;99.90;;;;;;5006346;28;20076;-81
2021/06/18 05:07:46;;;;;;;16.90;13.20;;;21.20;99.90;;;;;;5006478;28;20034;-81
2021/06/18 05:10:12;;;;;;;14.35;12.85;;;21.30;99.90;;;;;;5005947;28;20141;-81
2021/06/18 05:12:37;;;;;;;16.50;13.00;;;21.40;99.90;;;;;;5006042;28;20046;-81
2021/06/18 05:15:04;;;;;;;16.67;11.93;;;21.40;99.90;;;;;;5006449;28;20132;-81
2021/06/18 05:17:30;;;;;;;11.02;9.93;;;21.50;99.90;;;;;;5006153;28;20034;-81
2021/06/18 05:19:55;;;;;;;17.92;12.80;;;21.70;99.90;;;;;;5022851;28;20053;-81
2021/06/18 05:22:21;;;;;;;12.15;10.50;;;21.70;99.90;;;;;;5022837;28;20112;-81
2021/06/18 05:24:47;;;;;;;15.20;11.20;;;21.90;99.90;;;;;;5008841;28;20115;-81
2021/06/18 05:27:12;;;;;;;14.82;12.30;;;21.80;99.90;;;;;;5040827;28;20066;-81
2021/06/18 05:29:38;;;;;;;22.30;14.90;;;21.80;99.90;;;;;;5027216;28;20022;-82
2021/06/18 05:32:05;;;;;;;15.48;12.82;;;21.70;99.90;;;;;;5024923;28;20433;-82
2021/06/18 05:34:30;;;;;;;11.63;10.15;;;21.70;99.90;;;;;;5025102;28;20026;-81
2021/06/18 05:36:56;;;;;;;10.25;9.27;;;21.90;99.90;;;;;;5023608;28;20060;-80
2021/06/18 05:39:22;;;;;;;11.40;10.20;;;22.00;99.90;;;;;;5023731;28;20101;-80
2021/06/18 05:41:47;;;;;;;11.60;10.50;;;22.10;99.90;;;;;;5007199;28;20045;-81
2021/06/18 05:44:13;;;;;;;10.23;8.77;;;22.30;99.90;;;;;;5040307;28;20030;-81
2021/06/18 05:46:39;;;;;;;13.02;11.02;;;22.40;99.90;;;;;;5010175;28;20038;-81
2021/06/18 05:49:05;;;;;;;12.50;11.27;;;22.30;99.90;;;;;;5007265;28;20083;-81
2021/06/18 05:51:31;;;;;;;10.80;9.75;;;22.20;99.90;;;;;;5006850;28;20044;-81
2021/06/18 05:53:56;;;;;;;8.15;7.03;;;22.30;99.90;;;;;;5023615;28;20038;-81
2021/06/18 05:56:22;;;;;;;8.52;7.63;;;22.30;99.90;;;;;;5006840;28;20129;-80
2021/06/18 05:58:48;;;;;;;14.88;12.40;;;22.50;99.90;;;;;;5023440;28;20056;-81
2021/06/18 06:01:13;;;;;;;11.95;10.75;;;22.20;99.90;;;;;;5023128;28;20030;-80
2021/06/18 06:03:40;;;;;;;12.95;11.45;;;22.40;99.90;;;;;;5023399;28;20034;-80
2021/06/18 06:06:09;;;;;;;17.20;13.95;;;22.50;99.90;;;;;;5023201;28;20038;-80
2021/06/18 06:08:35;;;;;;;13.35;11.95;;;22.40;99.90;;;;;;5025613;28;20048;-80
2021/06/18 06:11:01;;;;;;;13.55;12.00;;;22.40;99.90;;;;;;5026382;28;20048;-80
2021/06/18 06:13:27;;;;;;;15.48;13.85;;;22.30;99.90;;;;;;5043088;28;20034;-81
2021/06/18 06:15:53;;;;;;;19.02;17.02;;;22.10;99.90;;;;;;5042800;28;20037;-80
2021/06/18 06:18:19;;;;;;;14.52;13.05;;;21.90;99.90;;;;;;5042930;28;20029;-80
2021/06/18 06:20:45;;;;;;;13.05;11.75;;;22.20;99.90;;;;;;5044315;28;20040;-80
2021/06/18 06:23:12;;;;;;;11.85;10.80;;;22.40;99.90;;;;;;5044763;28;20057;-80
2021/06/18 06:25:38;;;;;;;12.05;11.05;;;22.70;99.90;;;;;;5030130;28;20029;-80
2021/06/18 06:28:05;;;;;;;11.57;9.57;;;22.80;99.90;;;;;;5046357;28;20029;-80
2021/06/18 06:30:30;;;;;;;11.27;10.13;;;22.60;99.90;;;;;;5029869;28;20373;-80
2021/06/18 06:32:56;;;;;;;10.95;9.85;;;22.70;99.90;;;;;;5047748;28;20040;-80
2021/06/18 06:35:24;;;;;;;13.45;12.15;;;22.60;99.90;;;;;;5046285;28;20044;-80
2021/06/18 06:37:50;;;;;;;10.50;9.32;;;22.70;99.90;;;;;;5029877;28;20555;-80
2021/06/18 06:40:16;;;;;;;13.45;12.13;;;22.80;99.90;;;;;;5029729;28;20057;-80
2021/06/18 06:42:42;;;;;;;13.32;11.95;;;22.90;99.90;;;;;;5029565;28;20112;-80
2021/06/18 06:45:08;;;;;;;17.52;15.63;;;23.00;99.90;;;;;;5046262;28;20037;-80
2021/06/18 06:47:34;;;;;;;15.63;14.20;;;22.80;99.90;;;;;;5046489;28;20120;-80
2021/06/18 06:50:00;;;;;;;14.27;12.80;;;22.80;99.90;;;;;;5047364;28;20409;-80
2021/06/18 06:52:25;;;;;;;13.25;11.38;;;23.10;99.90;;;;;;5046198;28;20033;-80
2021/06/18 06:54:51;;;;;;;13.98;12.68;;;23.30;99.90;;;;;;5047478;28;20021;-80
2021/06/18 06:57:20;;;;;;;13.60;12.20;;;23.10;99.90;;;;;;5046082;28;20091;-80
2021/06/18 06:59:46;;;;;;;18.10;14.00;;;23.40;99.90;;;;;;5047273;28;20049;-80
2021/06/18 07:02:12;;;;;;;11.48;10.27;;;23.60;99.90;;;;;;5047089;28;20033;-80
2021/06/18 07:04:37;;;;;;;11.75;10.65;;;24.20;99.90;;;;;;5047349;28;20029;-80
2021/06/18 07:07:03;;;;;;;10.25;9.35;;;24.60;99.90;;;;;;5029055;28;20143;-80
2021/06/18 07:09:29;;;;;;;9.68;8.70;;;25.00;99.90;;;;;;5026050;28;20488;-81
2021/06/18 07:11:54;;;;;;;13.93;12.45;;;25.10;99.90;;;;;;5010305;28;20172;-81
2021/06/18 07:14:20;;;;;;;9.50;8.25;;;24.70;99.90;;;;;;5025953;28;20033;-80
2021/06/18 07:16:46;;;;;;;8.52;7.68;;;25.40;99.90;;;;;;5009342;28;20056;-81
2021/06/18 07:19:11;;;;;;;9.57;8.63;;;25.70;99.90;;;;;;5027116;28;20030;-81
2021/06/18 07:21:37;;;;;;;9.23;8.32;;;25.90;99.90;;;;;;5009103;28;20026;-81
2021/06/18 07:24:03;;;;;;;5.63;5.13;;;26.30;99.90;;;;;;5025692;28;20036;-81
2021/06/18 07:26:28;;;;;;;6.90;6.25;;;26.70;99.90;;;;;;5025666;28;20026;-81
2021/06/18 07:28:54;;;;;;;6.10;5.45;;;26.60;99.90;;;;;;5025478;28;20478;-81
2021/06/18 07:31:20;;;;;;;9.00;8.10;;;26.70;99.90;;;;;;5026697;28;20038;-81
2021/06/18 07:33:46;;;;;;;6.47;5.88;;;26.00;99.90;;;;;;5024745;28;20034;-81
2021/06/18 07:36:12;;;;;;;5.82;5.22;;;26.00;99.90;;;;;;5008775;28;20030;-80
2021/06/18 07:38:38;;;;;;;6.88;6.18;;;26.00;99.90;;;;;;5008980;28;20149;-81
2021/06/18 07:41:03;;;;;;;6.95;5.78;;;25.90;99.90;;;;;;5008927;28;20076;-81
2021/06/18 07:43:29;;;;;;;7.55;6.13;;;25.50;99.90;;;;;;5008674;28;20586;-81
2021/06/18 07:45:55;;;;;;;4.72;3.83;;;25.30;99.90;;;;;;5009652;28;20037;-80
2021/06/18 07:48:21;;;;;;;7.25;6.63;;;25.50;99.90;;;;;;5044805;28;20049;-79
2021/06/18 07:50:46;;;;;;;6.88;6.00;;;25.10;99.90;;;;;;5044745;28;20117;-80
2021/06/18 07:53:12;;;;;;;5.78;5.25;;;25.10;99.90;;;;;;5044938;28;20029;-80
2021/06/18 07:55:38;;;;;;;5.00;4.10;;;25.30;99.90;;;;;;5046239;28;20036;-80
2021/06/18 07:58:04;;;;;;;8.07;7.28;;;25.50;99.90;;;;;;5044808;28;20201;-80
2021/06/18 08:00:29;;;;;;;8.95;6.75;;;25.40;99.90;;;;;;5044581;28;20038;-80
2021/06/18 08:02:55;;;;;;;5.45;4.68;;;25.50;99.90;;;;;;5046064;28;20091;-80
2021/06/18 08:05:21;;;;;;;6.32;4.97;;;25.60;99.90;;;;;;5045884;28;20029;-80
2021/06/18 08:07:47;;;;;;;9.85;7.00;;;25.50;99.90;;;;;;5045873;28;20075;-80
2021/06/18 08:10:15;;;;;;;5.95;4.30;;;25.40;99.90;;;;;;5031095;28;20042;-80
2021/06/18 08:12:43;;;;;;;6.18;5.57;;;25.30;99.90;;;;;;5024656;28;20029;-80
2021/06/18 08:15:09;;;;;;;5.53;5.03;;;25.00;99.90;;;;;;5025697;28;20037;-80
2021/06/18 08:17:35;;;;;;;4.95;4.18;;;25.10;99.90;;;;;;5024418;28;20117;-80
2021/06/18 08:20:04;;;;;;;6.00;5.40;;;25.00;99.90;;;;;;5024291;28;20034;-80
2021/06/18 08:22:29;;;;;;;5.88;5.40;;;25.10;99.90;;;;;;5024488;28;20242;-80
2021/06/18 08:24:55;;;;;;;6.32;5.53;;;25.10;99.90;;;;;;5025719;28;20029;-80
2021/06/18 08:27:21;;;;;;;7.22;6.53;;;25.10;99.90;;;;;;5024430;28;20482;-80
2021/06/18 08:29:46;;;;;;;8.23;7.25;;;24.90;99.90;;;;;;5024272;28;20053;-80
2021/06/18 08:32:12;;;;;;;6.63;6.03;;;24.80;99.90;;;;;;5024531;28;20144;-80
2021/06/18 08:34:38;;;;;;;6.78;6.03;;;24.90;99.90;;;;;;5024419;28;20034;-80
2021/06/18 08:37:04;;;;;;;7.18;6.25;;;24.80;99.90;;;;;;5025571;28;20041;-80
2021/06/18 08:39:30;;;;;;;8.07;7.15;;;24.70;99.90;;;;;;5024263;28;20034;-80
2021/06/18 08:41:56;;;;;;;8.75;7.30;;;24.70;99.90;;;;;;5025614;28;20050;-81
2021/06/18 08:44:22;;;;;;;8.68;7.75;;;24.70;99.90;;;;;;5025448;28;20040;-80
2021/06/18 08:46:48;;;;;;;8.63;7.82;;;24.80;99.90;;;;;;5015110;28;20033;-79
2021/06/18 08:49:14;;;;;;;9.13;8.25;;;24.70;99.90;;;;;;5027496;28;20052;-80
2021/06/18 08:51:39;;;;;;;11.30;7.65;;;24.70;99.90;;;;;;5044099;28;20049;-80
2021/06/18 08:54:05;;;;;;;8.15;7.35;;;24.60;99.90;;;;;;5044025;28;20028;-80
2021/06/18 08:56:31;;;;;;;7.47;6.60;;;24.50;99.90;;;;;;5044103;28;20044;-80
2021/06/18 08:58:57;;;;;;;7.60;6.88;;;24.60;99.90;;;;;;5045284;28;20026;-80
2021/06/18 09:01:22;;;;;;;7.40;6.68;;;24.60;99.90;;;;;;5044978;28;20090;-80
2021/06/18 09:03:49;;;;;;;8.38;7.57;;;24.50;99.90;;;;;;5043805;28;20051;-80
2021/06/18 09:06:21;;;;;;;8.65;6.82;;;24.60;99.90;;;;;;5043913;28;20037;-80
2021/06/18 09:09:07;;;;;;;9.45;8.48;;;24.70;99.90;;;;;;5042618;28;20062;-80
2021/06/18 09:11:40;;;;;;;9.80;8.80;;;24.70;99.90;;;;;;5024107;28;20049;-79
2021/06/18 09:14:21;;;;;;;9.18;8.18;;;24.80;99.90;;;;;;5023990;28;20030;-79
2021/06/18 09:17:05;;;;;;;8.77;7.97;;;25.00;99.90;;;;;;5023565;28;20132;-80
2021/06/18 09:19:31;;;;;;;6.55;5.90;;;25.10;99.90;;;;;;5023826;28;20072;-80
2021/06/18 09:22:05;;;;;;;6.18;5.47;;;25.30;99.90;;;;;;5025187;28;20033;-80
2021/06/18 09:24:37;;;;;;;9.55;7.30;;;25.30;99.90;;;;;;5023899;28;20034;-79
2021/06/18 09:27:04;;;;;;;8.57;6.70;;;25.40;99.90;;;;;;5023902;28;20025;-80
2021/06/18 09:29:30;;;;;;;9.98;9.00;;;25.40;99.90;;;;;;5025033;28;20045;-80
2021/06/18 09:32:06;;;;;;;9.40;7.82;;;25.40;99.90;;;;;;5023582;28;20045;-80
2021/06/18 09:37:29;;;;;;;9.40;8.35;;;25.90;99.90;;;;;;5024933;28;20038;-81
2021/06/18 09:40:04;;;;;;;8.63;7.13;;;26.60;99.90;;;;;;5023467;28;20106;-80
2021/06/18 09:42:31;;;;;;;8.93;7.45;;;27.10;99.90;;;;;;5023940;28;20097;-81
2021/06/18 09:45:05;;;;;;;6.18;5.68;;;27.50;99.90;;;;;;5007181;28;20026;-81
2021/06/18 09:47:30;;;;;;;10.75;7.80;;;27.80;99.90;;;;;;5034471;28;20051;-81
2021/06/18 09:49:57;;;;;;;10.15;8.93;;;28.00;99.90;;;;;;5042954;28;20120;-81
2021/06/18 09:52:25;;;;;;;10.07;9.13;;;27.90;99.90;;;;;;5026880;28;20124;-81
2021/06/18 09:54:53;;;;;;;8.80;7.88;;;27.70;99.90;;;;;;5043244;28;20028;-82
2021/06/18 09:57:24;;;;;;;9.52;8.60;;;27.90;99.90;;;;;;5027372;28;20033;-82
2021/06/18 10:00:00;;;;;;;12.77;10.73;;;27.50;99.90;;;;;;5030536;28;20080;-81
2021/06/18 10:02:39;;;;;;;10.32;9.18;;;27.00;99.90;;;;;;5047177;28;20413;-82
2021/06/18 10:05:36;;;;;;;9.48;8.65;;;27.70;99.90;;;;;;5047061;28;20029;-82
2021/06/18 10:08:03;;;;;;;12.60;11.45;;;27.90;99.90;;;;;;5024688;28;20042;-82
2021/06/18 10:10:32;;;;;;;10.57;9.57;;;28.00;99.90;;;;;;5031624;28;20059;-82
2021/06/18 10:12:59;;;;;;;10.85;9.52;;;28.60;99.90;;;;;;5027205;28;20029;-83
2021/06/18 10:15:27;;;;;;;9.65;8.80;;;28.50;99.90;;;;;;5026876;28;20045;-83
2021/06/18 10:17:55;;;;;;;10.25;8.85;;;28.40;99.90;;;;;;5028564;28;20030;-82
2021/06/18 10:20:21;;;;;;;9.25;8.40;;;28.80;99.90;;;;;;5026997;28;20037;-83
2021/06/18 10:22:55;;;;;;;11.13;9.98;;;29.10;99.90;;;;;;5010823;28;20029;-82
2021/06/18 10:25:53;;;;;;;9.68;8.63;;;29.10;99.90;;;;;;5028080;28;20034;-83
2021/06/18 10:28:22;;;;;;;10.23;9.23;;;29.00;99.90;;;;;;5022462;28;20037;-83
2021/06/18 10:30:52;;;;;;;10.88;9.98;;;28.70;99.90;;;;;;5010186;28;20493;-83
2021/06/18 10:33:26;;;;;;;9.27;8.43;;;28.60;99.90;;;;;;5028183;28;20026;-83
2021/06/18 10:36:02;;;;;;;11.23;10.18;;;28.60;99.90;;;;;;5010157;28;20060;-82
2021/06/18 10:38:38;;;;;;;12.85;11.75;;;28.80;99.90;;;;;;5010390;28;20037;-82
2021/06/18 10:41:12;;;;;;;8.60;7.68;;;28.90;99.90;;;;;;5026444;28;20038;-83
2021/06/18 10:43:41;;;;;;;8.82;8.02;;;29.70;99.90;;;;;;5026599;28;20026;-83
2021/06/18 10:46:15;;;;;;;9.23;8.13;;;30.20;99.90;;;;;;5029491;28;20026;-83
2021/06/18 10:48:50;;;;;;;10.48;9.40;;;30.40;99.90;;;;;;5029467;28;20060;-82
2021/06/18 10:51:32;;;;;;;8.35;7.60;;;30.30;99.90;;;;;;5029313;28;20100;-83
2021/06/18 10:54:15;;;;;;;9.25;7.85;;;30.40;99.90;;;;;;5047583;28;20033;-83
2021/06/18 10:56:47;;;;;;;20.30;6.82;;;30.50;99.90;;;;;;5046110;28;20034;-83
2021/06/18 10:59:26;;;;;;;8.05;7.35;;;30.40;99.90;;;;;;5029761;28;20060;-82
2021/06/18 11:01:52;;;;;;;8.75;7.97;;;30.00;99.90;;;;;;5046050;28;20102;-83
2021/06/18 11:04:35;;;;;;;9.30;6.57;;;30.60;99.90;;;;;;5029358;28;20063;-84
2021/06/18 11:07:21;;;;;;;10.18;9.38;;;30.30;99.90;;;;;;5029186;28;20064;-82
2021/06/18 11:09:56;;;;;;;10.90;9.38;;;30.10;99.90;;;;;;5034907;28;20404;-82
2021/06/18 11:12:25;;;;;;;9.38;8.50;;;30.50;99.90;;;;;;5042595;28;20105;-82
2021/06/18 11:14:58;;;;;;;10.93;8.48;;;30.20;99.90;;;;;;5042469;28;20041;-82
2021/06/18 11:17:45;;;;;;;15.40;7.90;;;30.00;99.90;;;;;;5042182;28;20030;-83
2021/06/18 11:20:15;;;;;;;10.88;9.45;;;30.00;99.90;;;;;;5042362;28;20033;-82
2021/06/18 11:22:52;;;;;;;8.15;6.55;;;29.90;99.90;;;;;;5027079;28;20030;-82
2021/06/18 11:25:36;;;;;;;6.25;5.65;;;30.80;99.90;;;;;;5042334;28;20042;-83
2021/06/18 11:28:32;;;;;;;6.03;5.45;;;31.50;99.90;;;;;;5041433;28;20038;-83
2021/06/18 11:31:13;;;;;;;6.90;5.28;;;31.60;99.90;;;;;;5024000;28;20079;-84
2021/06/18 11:36:17;;;;;;;7.50;6.47;;;30.90;99.90;;;;;;5043604;28;20116;-83
2021/06/18 11:38:44;;;;;;;5.72;5.18;;;31.10;99.90;;;;;;5045276;28;20093;-83
2021/06/18 11:41:11;;;;;;;7.70;6.07;;;31.30;99.90;;;;;;5045001;28;20132;-84
2021/06/18 11:43:40;;;;;;;7.95;5.90;;;31.50;99.90;;;;;;5045162;28;20113;-82
2021/06/18 11:49:20;;;;;;;8.43;5.68;;;31.30;99.90;;;;;;5044864;28;20092;-83
2021/06/18 11:51:50;;;;;;;7.80;4.35;;;31.30;99.90;;;;;;5027921;28;20072;-86
2021/06/18 11:54:29;;;;;;;5.05;4.65;;;31.70;99.90;;;;;;4999532;28;20617;-83
2021/06/18 11:57:05;;;;;;;3.25;2.97;;;31.90;99.90;;;;;;5028802;28;20037;-84
2021/06/18 11:59:32;;;;;;;5.05;3.10;;;31.90;99.90;;;;;;5045640;28;20029;-84
2021/06/18 12:02:11;;;;;;;6.82;2.80;;;31.70;99.90;;;;;;5012608;28;20033;-84
2021/06/18 12:04:36;;;;;;;2.75;2.17;;;32.00;99.90;;;;;;5028575;28;20040;-84
2021/06/18 12:07:03;;;;;;;4.13;2.13;;;31.80;99.90;;;;;;5029012;28;20022;-83
2021/06/18 12:09:36;;;;;;;8.15;3.15;;;31.90;99.90;;;;;;5046657;28;20033;-84
2021/06/18 12:12:02;;;;;;;3.60;2.35;;;32.40;99.90;;;;;;5012402;28;20053;-82
2021/06/18 12:14:43;;;;;;;4.60;3.00;;;32.30;99.90;;;;;;5045102;28;20033;-84
2021/06/18 12:17:09;;;;;;;4.85;2.33;;;32.50;99.90;;;;;;5028656;28;20053;-84
2021/06/18 12:19:42;;;;;;;3.70;2.13;;;32.50;99.90;;;;;;5012027;28;20090;-84
2021/06/18 12:22:12;;;;;;;4.20;2.03;;;32.60;99.90;;;;;;5028281;28;20039;-84
2021/06/18 12:24:53;;;;;;;3.83;1.77;;;32.50;99.90;;;;;;5044085;28;20033;-85
2021/06/18 12:27:27;;;;;;;3.60;1.63;;;32.40;99.90;;;;;;5027919;28;20034;-85
2021/06/18 12:29:55;;;;;;;6.30;1.90;;;32.90;99.90;;;;;;5027940;28;20048;-84
2021/06/18 12:32:28;;;;;;;3.53;1.60;;;32.90;99.90;;;;;;5044824;28;20040;-85
2021/06/18 12:34:57;;;;;;;3.65;1.52;;;32.80;99.90;;;;;;5027711;28;20097;-85
2021/06/18 12:37:23;;;;;;;;;;;33.30;99.90;;;;;;5028306;28;20122;-85
2021/06/18 12:40:09;;;;;;;3.40;1.58;;;33.20;99.90;;;;;;5011424;28;19909;-86
2021/06/18 12:42:38;;;;;;;3.38;1.20;;;32.80;99.90;;;;;;5030760;28;20041;-86
2021/06/18 12:45:12;;;;;;;4.13;1.05;;;33.30;99.90;;;;;;5027972;28;20041;-86
2021/06/18 12:47:47;;;;;;;4.43;1.63;;;33.60;99.90;;;;;;5027379;28;20101;-86
2021/06/18 12:50:33;;;;;;;2.10;1.27;;;32.90;99.90;;;;;;5043653;28;20038;-85
2021/06/18 12:53:01;;;;;;;5.03;1.55;;;33.10;99.90;;;;;;5044756;28;20030;-84
2021/06/18 12:55:32;;;;;;;3.33;1.00;;;32.50;99.90;;;;;;5027440;28;20037;-84
2021/06/18 12:58:06;;;;;;;3.35;1.00;;;32.80;99.90;;;;;;5043917;28;20149;-84